sensor_id;sensor_type;location;lat;lon;timestamp;P1;durP1;ratioP1;P2;durP2;ratioP2
12844;SDS011;68700;48.534;9.196;2024-03-06T00:01:02;6.87;;;6.13;;
12844;SDS011;68700;48.534;9.196;2024-03-06T00:04:24;6.73;;;5.60;;
12844;SDS011;68700;48.534;9.196;2024-03-06T00:07:48;6.90;;;6.20;;
12844;SDS011;68700;48.534;9.196;2024-03-06T00:11:10;8.60;;;6.57;;
12844;SDS011;68700;48.534;9.196;2024-03-06T00:14:31;6.13;;;5.53;;
12844;SDS011;68700;48.534;9.196;2024-03-06T00:17:56;6.63;;;5.93;;
12844;SDS011;68700;48.534;9.196;2024-03-06T00:21:18;8.17;;;6.23;;
12844;SDS011;68700;48.534;9.196;2024-03-06T00:24:41;7.40;;;6.33;;
12844;SDS011;68700;48.534;9.196;2024-03-06T00:28:04;7.67;;;6.17;;
12844;SDS011;68700;48.534;9.196;2024-03-06T00:31:26;7.23;;;5.27;;
12844;SDS011;68700;48.534;9.196;2024-03-06T00:34:48;5.70;;;5.20;;
12844;SDS011;68700;48.534;9.196;2024-03-06T00:38:10;6.60;;;5.27;;
12844;SDS011;68700;48.534;9.196;2024-03-06T00:41:33;7.50;;;5.87;;
12844;SDS011;68700;48.534;9.196;2024-03-06T00:44:55;6.73;;;5.57;;
12844;SDS011;68700;48.534;9.196;2024-03-06T00:48:17;6.57;;;5.97;;
12844;SDS011;68700;48.534;9.196;2024-03-06T00:51:40;6.87;;;5.90;;
12844;SDS011;68700;48.534;9.196;2024-03-06T00:55:02;6.13;;;5.50;;
12844;SDS011;68700;48.534;9.196;2024-03-06T00:58:26;6.50;;;5.73;;
12844;SDS011;68700;48.534;9.196;2024-03-06T01:01:48;7.27;;;5.97;;
12844;SDS011;68700;48.534;9.196;2024-03-06T01:05:10;7.17;;;6.07;;
12844;SDS011;68700;48.534;9.196;2024-03-06T01:08:32;8.10;;;6.17;;
12844;SDS011;68700;48.534;9.196;2024-03-06T01:11:54;7.50;;;5.93;;
12844;SDS011;68700;48.534;9.196;2024-03-06T01:15:17;6.93;;;5.40;;
12844;SDS011;68700;48.534;9.196;2024-03-06T01:18:39;6.90;;;5.87;;
12844;SDS011;68700;48.534;9.196;2024-03-06T01:22:01;7.77;;;6.30;;
12844;SDS011;68700;48.534;9.196;2024-03-06T01:25:23;7.63;;;5.77;;
12844;SDS011;68700;48.534;9.196;2024-03-06T01:28:44;6.83;;;6.00;;
12844;SDS011;68700;48.534;9.196;2024-03-06T01:32:08;7.30;;;6.53;;
12844;SDS011;68700;48.534;9.196;2024-03-06T01:35:30;6.90;;;5.93;;
12844;SDS011;68700;48.534;9.196;2024-03-06T01:38:52;7.53;;;6.03;;
12844;SDS011;68700;48.534;9.196;2024-03-06T01:42:16;6.80;;;6.10;;
12844;SDS011;68700;48.534;9.196;2024-03-06T01:45:38;6.73;;;5.93;;
12844;SDS011;68700;48.534;9.196;2024-03-06T01:49:01;7.63;;;6.33;;
12844;SDS011;68700;48.534;9.196;2024-03-06T01:52:24;8.13;;;6.93;;
12844;SDS011;68700;48.534;9.196;2024-03-06T01:55:46;8.00;;;6.70;;
12844;SDS011;68700;48.534;9.196;2024-03-06T01:59:10;7.67;;;6.53;;
12844;SDS011;68700;48.534;9.196;2024-03-06T02:02:32;7.10;;;6.40;;
12844;SDS011;68700;48.534;9.196;2024-03-06T02:05:55;7.30;;;6.60;;
12844;SDS011;68700;48.534;9.196;2024-03-06T02:09:19;8.80;;;7.47;;
12844;SDS011;68700;48.534;9.196;2024-03-06T02:12:41;7.37;;;6.60;;
12844;SDS011;68700;48.534;9.196;2024-03-06T02:16:03;7.67;;;6.73;;
12844;SDS011;68700;48.534;9.196;2024-03-06T02:19:36;8.87;;;7.77;;
12844;SDS011;68700;48.534;9.196;2024-03-06T02:23:00;9.47;;;6.87;;
12844;SDS011;68700;48.534;9.196;2024-03-06T02:26:22;7.27;;;6.53;;
12844;SDS011;68700;48.534;9.196;2024-03-06T02:29:44;7.37;;;6.67;;
12844;SDS011;68700;48.534;9.196;2024-03-06T02:33:06;7.10;;;6.37;;
12844;SDS011;68700;48.534;9.196;2024-03-06T02:36:29;7.97;;;6.87;;
12844;SDS011;68700;48.534;9.196;2024-03-06T02:39:53;9.57;;;6.97;;
12844;SDS011;68700;48.534;9.196;2024-03-06T02:43:15;9.50;;;7.07;;
12844;SDS011;68700;48.534;9.196;2024-03-06T02:46:37;7.43;;;6.73;;
12844;SDS011;68700;48.534;9.196;2024-03-06T02:49:59;7.57;;;6.77;;
12844;SDS011;68700;48.534;9.196;2024-03-06T02:53:21;9.53;;;7.40;;
12844;SDS011;68700;48.534;9.196;2024-03-06T02:56:44;9.07;;;7.97;;
12844;SDS011;68700;48.534;9.196;2024-03-06T03:00:06;8.97;;;7.20;;
12844;SDS011;68700;48.534;9.196;2024-03-06T03:03:32;7.97;;;7.17;;
12844;SDS011;68700;48.534;9.196;2024-03-06T03:06:55;8.43;;;6.97;;
12844;SDS011;68700;48.534;9.196;2024-03-06T03:10:16;7.33;;;6.63;;
12844;SDS011;68700;48.534;9.196;2024-03-06T03:13:41;8.77;;;7.23;;
12844;SDS011;68700;48.534;9.196;2024-03-06T03:17:04;8.37;;;7.23;;
12844;SDS011;68700;48.534;9.196;2024-03-06T03:20:26;6.77;;;6.07;;
12844;SDS011;68700;48.534;9.196;2024-03-06T03:23:48;8.90;;;6.73;;
12844;SDS011;68700;48.534;9.196;2024-03-06T03:27:10;8.00;;;6.50;;
12844;SDS011;68700;48.534;9.196;2024-03-06T03:30:36;7.60;;;6.40;;
12844;SDS011;68700;48.534;9.196;2024-03-06T03:33:58;8.07;;;7.27;;
12844;SDS011;68700;48.534;9.196;2024-03-06T03:37:19;7.73;;;6.80;;
12844;SDS011;68700;48.534;9.196;2024-03-06T03:40:41;9.80;;;7.20;;
12844;SDS011;68700;48.534;9.196;2024-03-06T03:44:03;7.63;;;6.73;;
12844;SDS011;68700;48.534;9.196;2024-03-06T03:47:27;8.40;;;6.87;;
12844;SDS011;68700;48.534;9.196;2024-03-06T03:50:48;9.53;;;6.90;;
12844;SDS011;68700;48.534;9.196;2024-03-06T03:54:10;6.83;;;6.10;;
12844;SDS011;68700;48.534;9.196;2024-03-06T03:57:32;7.07;;;6.37;;
12844;SDS011;68700;48.534;9.196;2024-03-06T04:00:54;8.20;;;6.73;;
12844;SDS011;68700;48.534;9.196;2024-03-06T04:04:17;6.87;;;6.17;;
12844;SDS011;68700;48.534;9.196;2024-03-06T04:07:39;8.40;;;7.00;;
12844;SDS011;68700;48.534;9.196;2024-03-06T04:11:01;9.43;;;7.20;;
12844;SDS011;68700;48.534;9.196;2024-03-06T04:14:23;8.30;;;6.87;;
12844;SDS011;68700;48.534;9.196;2024-03-06T04:17:46;8.07;;;6.83;;
12844;SDS011;68700;48.534;9.196;2024-03-06T04:21:09;10.30;;;7.23;;
12844;SDS011;68700;48.534;9.196;2024-03-06T04:24:31;7.30;;;6.60;;
12844;SDS011;68700;48.534;9.196;2024-03-06T04:27:53;8.67;;;6.70;;
12844;SDS011;68700;48.534;9.196;2024-03-06T04:31:15;7.97;;;7.10;;
12844;SDS011;68700;48.534;9.196;2024-03-06T04:34:36;7.10;;;6.33;;
12844;SDS011;68700;48.534;9.196;2024-03-06T04:38:00;8.03;;;7.23;;
12844;SDS011;68700;48.534;9.196;2024-03-06T04:41:23;8.53;;;6.63;;
12844;SDS011;68700;48.534;9.196;2024-03-06T04:44:45;7.10;;;5.97;;
12844;SDS011;68700;48.534;9.196;2024-03-06T04:48:07;9.87;;;6.73;;
12844;SDS011;68700;48.534;9.196;2024-03-06T04:51:29;7.47;;;6.70;;
12844;SDS011;68700;48.534;9.196;2024-03-06T04:54:52;11.07;;;7.40;;
12844;SDS011;68700;48.534;9.196;2024-03-06T04:58:14;9.17;;;7.50;;
12844;SDS011;68700;48.534;9.196;2024-03-06T05:01:36;7.70;;;6.53;;
12844;SDS011;68700;48.534;9.196;2024-03-06T05:04:58;7.40;;;6.20;;
12844;SDS011;68700;48.534;9.196;2024-03-06T05:08:20;9.07;;;6.70;;
12844;SDS011;68700;48.534;9.196;2024-03-06T05:11:44;6.97;;;6.07;;
12844;SDS011;68700;48.534;9.196;2024-03-06T05:15:06;7.40;;;6.60;;
12844;SDS011;68700;48.534;9.196;2024-03-06T05:18:28;8.97;;;6.57;;
12844;SDS011;68700;48.534;9.196;2024-03-06T05:21:50;7.30;;;6.60;;
12844;SDS011;68700;48.534;9.196;2024-03-06T05:25:11;7.73;;;6.37;;
12844;SDS011;68700;48.534;9.196;2024-03-06T05:28:35;7.50;;;6.80;;
12844;SDS011;68700;48.534;9.196;2024-03-06T05:31:58;8.13;;;6.70;;
12844;SDS011;68700;48.534;9.196;2024-03-06T05:35:20;7.67;;;6.10;;
12844;SDS011;68700;48.534;9.196;2024-03-06T05:38:42;9.67;;;7.27;;
12844;SDS011;68700;48.534;9.196;2024-03-06T05:42:04;7.50;;;6.80;;
12844;SDS011;68700;48.534;9.196;2024-03-06T05:45:28;7.87;;;6.33;;
12844;SDS011;68700;48.534;9.196;2024-03-06T05:48:50;8.03;;;6.33;;
12844;SDS011;68700;48.534;9.196;2024-03-06T05:52:11;7.83;;;6.63;;
12844;SDS011;68700;48.534;9.196;2024-03-06T05:55:33;9.60;;;6.70;;
12844;SDS011;68700;48.534;9.196;2024-03-06T05:58:55;8.93;;;6.90;;
12844;SDS011;68700;48.534;9.196;2024-03-06T06:02:19;8.67;;;6.83;;
12844;SDS011;68700;48.534;9.196;2024-03-06T06:05:40;10.17;;;6.53;;
12844;SDS011;68700;48.534;9.196;2024-03-06T06:09:02;9.63;;;7.10;;
12844;SDS011;68700;48.534;9.196;2024-03-06T06:12:26;8.43;;;6.93;;
12844;SDS011;68700;48.534;9.196;2024-03-06T06:15:47;10.60;;;7.33;;
12844;SDS011;68700;48.534;9.196;2024-03-06T06:19:11;11.00;;;7.10;;
12844;SDS011;68700;48.534;9.196;2024-03-06T06:22:32;8.37;;;6.43;;
12844;SDS011;68700;48.534;9.196;2024-03-06T06:25:54;9.27;;;7.40;;
12844;SDS011;68700;48.534;9.196;2024-03-06T06:29:16;9.53;;;7.00;;
12844;SDS011;68700;48.534;9.196;2024-03-06T06:32:40;9.07;;;7.17;;
12844;SDS011;68700;48.534;9.196;2024-03-06T06:36:03;10.60;;;7.70;;
12844;SDS011;68700;48.534;9.196;2024-03-06T06:39:26;10.07;;;7.90;;
12844;SDS011;68700;48.534;9.196;2024-03-06T06:42:48;8.97;;;7.07;;
12844;SDS011;68700;48.534;9.196;2024-03-06T06:46:10;9.53;;;7.53;;
12844;SDS011;68700;48.534;9.196;2024-03-06T06:49:32;8.00;;;6.30;;
12844;SDS011;68700;48.534;9.196;2024-03-06T06:52:55;10.97;;;7.50;;
12844;SDS011;68700;48.534;9.196;2024-03-06T06:56:19;10.93;;;7.20;;
12844;SDS011;68700;48.534;9.196;2024-03-06T06:59:43;11.80;;;7.50;;
12844;SDS011;68700;48.534;9.196;2024-03-06T07:03:05;7.90;;;6.57;;
12844;SDS011;68700;48.534;9.196;2024-03-06T07:06:27;8.93;;;6.90;;
12844;SDS011;68700;48.534;9.196;2024-03-06T07:09:51;9.27;;;6.03;;
12844;SDS011;68700;48.534;9.196;2024-03-06T07:13:13;11.03;;;7.13;;
12844;SDS011;68700;48.534;9.196;2024-03-06T07:16:34;6.73;;;6.03;;
12844;SDS011;68700;48.534;9.196;2024-03-06T07:20:04;8.57;;;6.40;;
12844;SDS011;68700;48.534;9.196;2024-03-06T07:23:28;9.33;;;7.23;;
12844;SDS011;68700;48.534;9.196;2024-03-06T07:26:51;9.00;;;7.03;;
12844;SDS011;68700;48.534;9.196;2024-03-06T07:30:13;8.90;;;7.13;;
12844;SDS011;68700;48.534;9.196;2024-03-06T07:33:36;11.10;;;7.30;;
12844;SDS011;68700;48.534;9.196;2024-03-06T07:36:58;11.50;;;7.70;;
12844;SDS011;68700;48.534;9.196;2024-03-06T07:40:20;9.70;;;7.23;;
12844;SDS011;68700;48.534;9.196;2024-03-06T07:43:43;8.23;;;7.00;;
12844;SDS011;68700;48.534;9.196;2024-03-06T07:47:05;9.57;;;7.37;;
12844;SDS011;68700;48.534;9.196;2024-03-06T07:50:28;6.63;;;5.87;;
12844;SDS011;68700;48.534;9.196;2024-03-06T07:53:50;7.57;;;6.63;;
12844;SDS011;68700;48.534;9.196;2024-03-06T07:57:12;10.50;;;6.80;;
12844;SDS011;68700;48.534;9.196;2024-03-06T08:00:35;9.73;;;7.90;;
12844;SDS011;68700;48.534;9.196;2024-03-06T08:03:58;10.00;;;7.57;;
12844;SDS011;68700;48.534;9.196;2024-03-06T08:07:20;9.57;;;7.47;;
12844;SDS011;68700;48.534;9.196;2024-03-06T08:10:42;10.67;;;7.90;;
12844;SDS011;68700;48.534;9.196;2024-03-06T08:14:05;9.97;;;8.17;;
12844;SDS011;68700;48.534;9.196;2024-03-06T08:17:29;10.50;;;7.80;;
12844;SDS011;68700;48.534;9.196;2024-03-06T08:20:51;9.57;;;8.27;;
12844;SDS011;68700;48.534;9.196;2024-03-06T08:24:13;8.63;;;7.17;;
12844;SDS011;68700;48.534;9.196;2024-03-06T08:27:35;10.20;;;7.37;;
12844;SDS011;68700;48.534;9.196;2024-03-06T08:30:59;7.83;;;6.43;;
12844;SDS011;68700;48.534;9.196;2024-03-06T08:34:23;12.07;;;7.73;;
12844;SDS011;68700;48.534;9.196;2024-03-06T08:37:44;11.63;;;8.47;;
12844;SDS011;68700;48.534;9.196;2024-03-06T08:41:06;12.87;;;8.70;;
12844;SDS011;68700;48.534;9.196;2024-03-06T08:44:28;11.03;;;8.20;;
12844;SDS011;68700;48.534;9.196;2024-03-06T08:47:50;9.10;;;6.73;;
12844;SDS011;68700;48.534;9.196;2024-03-06T08:51:15;10.13;;;7.07;;
12844;SDS011;68700;48.534;9.196;2024-03-06T08:54:37;10.43;;;7.07;;
12844;SDS011;68700;48.534;9.196;2024-03-06T08:57:58;9.80;;;7.67;;
12844;SDS011;68700;48.534;9.196;2024-03-06T09:01:21;9.73;;;8.70;;
12844;SDS011;68700;48.534;9.196;2024-03-06T09:04:43;10.27;;;8.37;;
12844;SDS011;68700;48.534;9.196;2024-03-06T09:08:06;8.83;;;7.87;;
12844;SDS011;68700;48.534;9.196;2024-03-06T09:11:29;12.07;;;8.50;;
12844;SDS011;68700;48.534;9.196;2024-03-06T09:14:51;10.30;;;9.20;;
12844;SDS011;68700;48.534;9.196;2024-03-06T09:18:13;11.13;;;8.40;;
12844;SDS011;68700;48.534;9.196;2024-03-06T09:21:36;10.50;;;8.30;;
12844;SDS011;68700;48.534;9.196;2024-03-06T09:24:59;9.57;;;8.57;;
12844;SDS011;68700;48.534;9.196;2024-03-06T09:28:21;11.90;;;8.43;;
12844;SDS011;68700;48.534;9.196;2024-03-06T09:31:43;8.60;;;6.73;;
12844;SDS011;68700;48.534;9.196;2024-03-06T09:35:06;10.37;;;7.03;;
12844;SDS011;68700;48.534;9.196;2024-03-06T09:38:28;8.30;;;6.90;;
12844;SDS011;68700;48.534;9.196;2024-03-06T09:41:51;11.03;;;7.73;;
12844;SDS011;68700;48.534;9.196;2024-03-06T09:45:15;9.07;;;7.00;;
12844;SDS011;68700;48.534;9.196;2024-03-06T09:48:37;10.73;;;7.10;;
12844;SDS011;68700;48.534;9.196;2024-03-06T09:52:07;10.87;;;7.73;;
12844;SDS011;68700;48.534;9.196;2024-03-06T09:55:30;8.93;;;7.10;;
12844;SDS011;68700;48.534;9.196;2024-03-06T09:58:54;8.10;;;6.50;;
12844;SDS011;68700;48.534;9.196;2024-03-06T10:02:18;8.83;;;6.30;;
12844;SDS011;68700;48.534;9.196;2024-03-06T10:05:49;7.90;;;6.93;;
12844;SDS011;68700;48.534;9.196;2024-03-06T10:09:11;9.60;;;6.40;;
12844;SDS011;68700;48.534;9.196;2024-03-06T10:12:33;8.23;;;5.77;;
12844;SDS011;68700;48.534;9.196;2024-03-06T10:15:57;6.57;;;5.63;;
12844;SDS011;68700;48.534;9.196;2024-03-06T10:19:21;6.27;;;5.67;;
12844;SDS011;68700;48.534;9.196;2024-03-06T10:22:44;8.10;;;6.40;;
12844;SDS011;68700;48.534;9.196;2024-03-06T10:26:07;8.40;;;7.13;;
12844;SDS011;68700;48.534;9.196;2024-03-06T10:29:29;9.17;;;7.77;;
12844;SDS011;68700;48.534;9.196;2024-03-06T10:32:52;8.73;;;6.57;;
12844;SDS011;68700;48.534;9.196;2024-03-06T10:36:14;10.40;;;7.80;;
12844;SDS011;68700;48.534;9.196;2024-03-06T10:39:38;10.13;;;7.77;;
12844;SDS011;68700;48.534;9.196;2024-03-06T10:43:04;10.43;;;8.57;;
12844;SDS011;68700;48.534;9.196;2024-03-06T10:46:27;11.93;;;8.43;;
12844;SDS011;68700;48.534;9.196;2024-03-06T10:49:51;9.27;;;7.87;;
12844;SDS011;68700;48.534;9.196;2024-03-06T10:53:15;10.03;;;8.87;;
12844;SDS011;68700;48.534;9.196;2024-03-06T10:56:38;12.87;;;9.60;;
12844;SDS011;68700;48.534;9.196;2024-03-06T11:00:02;10.73;;;8.93;;
12844;SDS011;68700;48.534;9.196;2024-03-06T11:03:26;9.47;;;8.10;;
12844;SDS011;68700;48.534;9.196;2024-03-06T11:06:52;10.60;;;7.70;;
12844;SDS011;68700;48.534;9.196;2024-03-06T11:10:29;9.67;;;8.10;;
12844;SDS011;68700;48.534;9.196;2024-03-06T11:13:54;9.63;;;7.80;;
12844;SDS011;68700;48.534;9.196;2024-03-06T11:17:18;8.97;;;8.07;;
12844;SDS011;68700;48.534;9.196;2024-03-06T11:20:47;9.10;;;7.47;;
12844;SDS011;68700;48.534;9.196;2024-03-06T11:24:14;10.97;;;8.10;;
12844;SDS011;68700;48.534;9.196;2024-03-06T11:31:28;10.10;;;8.50;;
12844;SDS011;68700;48.534;9.196;2024-03-06T11:34:52;10.87;;;8.60;;
12844;SDS011;68700;48.534;9.196;2024-03-06T11:38:16;11.07;;;8.37;;
12844;SDS011;68700;48.534;9.196;2024-03-06T11:41:47;13.63;;;10.60;;
12844;SDS011;68700;48.534;9.196;2024-03-06T11:45:13;10.40;;;9.13;;
12844;SDS011;68700;48.534;9.196;2024-03-06T11:48:41;11.20;;;8.80;;
12844;SDS011;68700;48.534;9.196;2024-03-06T11:52:03;11.30;;;9.73;;
12844;SDS011;68700;48.534;9.196;2024-03-06T11:55:28;11.07;;;9.13;;
12844;SDS011;68700;48.534;9.196;2024-03-06T11:58:52;11.57;;;9.63;;
12844;SDS011;68700;48.534;9.196;2024-03-06T12:02:14;13.47;;;10.10;;
12844;SDS011;68700;48.534;9.196;2024-03-06T12:05:36;13.53;;;10.77;;
12844;SDS011;68700;48.534;9.196;2024-03-06T12:08:58;16.80;;;11.07;;
12844;SDS011;68700;48.534;9.196;2024-03-06T12:12:20;13.63;;;11.27;;
12844;SDS011;68700;48.534;9.196;2024-03-06T12:15:43;15.23;;;10.60;;
12844;SDS011;68700;48.534;9.196;2024-03-06T12:19:05;14.00;;;10.53;;
12844;SDS011;68700;48.534;9.196;2024-03-06T12:22:29;14.53;;;10.73;;
12844;SDS011;68700;48.534;9.196;2024-03-06T12:26:01;12.47;;;10.63;;
12844;SDS011;68700;48.534;9.196;2024-03-06T12:29:29;13.43;;;11.10;;
12844;SDS011;68700;48.534;9.196;2024-03-06T12:32:59;13.50;;;12.03;;
12844;SDS011;68700;48.534;9.196;2024-03-06T12:36:24;14.20;;;11.40;;
12844;SDS011;68700;48.534;9.196;2024-03-06T12:39:47;15.10;;;11.30;;
12844;SDS011;68700;48.534;9.196;2024-03-06T12:43:08;14.73;;;11.67;;
12844;SDS011;68700;48.534;9.196;2024-03-06T12:46:30;14.83;;;12.10;;
12844;SDS011;68700;48.534;9.196;2024-03-06T12:49:53;13.57;;;12.03;;
12844;SDS011;68700;48.534;9.196;2024-03-06T12:53:15;15.03;;;12.03;;
12844;SDS011;68700;48.534;9.196;2024-03-06T12:56:38;13.73;;;12.07;;
12844;SDS011;68700;48.534;9.196;2024-03-06T13:00:01;17.50;;;13.60;;
12844;SDS011;68700;48.534;9.196;2024-03-06T13:03:27;15.43;;;12.03;;
12844;SDS011;68700;48.534;9.196;2024-03-06T13:06:50;15.03;;;13.27;;
12844;SDS011;68700;48.534;9.196;2024-03-06T13:10:12;16.77;;;13.47;;
12844;SDS011;68700;48.534;9.196;2024-03-06T13:13:34;14.00;;;11.37;;
12844;SDS011;68700;48.534;9.196;2024-03-06T13:16:56;14.63;;;12.60;;
12844;SDS011;68700;48.534;9.196;2024-03-06T13:20:17;15.80;;;12.70;;
12844;SDS011;68700;48.534;9.196;2024-03-06T13:23:41;13.77;;;12.20;;
12844;SDS011;68700;48.534;9.196;2024-03-06T13:27:02;16.40;;;13.40;;
12844;SDS011;68700;48.534;9.196;2024-03-06T13:30:24;15.47;;;12.30;;
12844;SDS011;68700;48.534;9.196;2024-03-06T13:33:46;15.00;;;12.70;;
12844;SDS011;68700;48.534;9.196;2024-03-06T13:37:09;15.17;;;12.20;;
12844;SDS011;68700;48.534;9.196;2024-03-06T13:40:32;15.17;;;12.70;;
12844;SDS011;68700;48.534;9.196;2024-03-06T13:43:54;16.47;;;12.60;;
12844;SDS011;68700;48.534;9.196;2024-03-06T13:47:16;14.57;;;12.70;;
12844;SDS011;68700;48.534;9.196;2024-03-06T13:50:38;15.93;;;13.37;;
12844;SDS011;68700;48.534;9.196;2024-03-06T13:54:00;16.20;;;13.20;;
12844;SDS011;68700;48.534;9.196;2024-03-06T13:57:23;15.10;;;12.87;;
12844;SDS011;68700;48.534;9.196;2024-03-06T14:00:45;15.83;;;12.57;;
12844;SDS011;68700;48.534;9.196;2024-03-06T14:04:07;15.67;;;12.77;;
12844;SDS011;68700;48.534;9.196;2024-03-06T14:07:29;15.30;;;12.43;;
12844;SDS011;68700;48.534;9.196;2024-03-06T14:10:51;17.13;;;13.70;;
12844;SDS011;68700;48.534;9.196;2024-03-06T14:14:14;17.40;;;13.23;;
12844;SDS011;68700;48.534;9.196;2024-03-06T14:17:36;16.20;;;13.27;;
12844;SDS011;68700;48.534;9.196;2024-03-06T14:21:00;17.47;;;13.87;;
12844;SDS011;68700;48.534;9.196;2024-03-06T14:24:22;18.57;;;14.40;;
12844;SDS011;68700;48.534;9.196;2024-03-06T14:27:44;16.60;;;13.83;;
12844;SDS011;68700;48.534;9.196;2024-03-06T14:31:07;16.57;;;14.00;;
12844;SDS011;68700;48.534;9.196;2024-03-06T14:34:30;19.77;;;14.70;;
12844;SDS011;68700;48.534;9.196;2024-03-06T14:37:52;16.97;;;13.43;;
12844;SDS011;68700;48.534;9.196;2024-03-06T14:41:14;16.90;;;14.27;;
12844;SDS011;68700;48.534;9.196;2024-03-06T14:44:36;18.57;;;14.73;;
12844;SDS011;68700;48.534;9.196;2024-03-06T14:47:59;17.03;;;14.30;;
12844;SDS011;68700;48.534;9.196;2024-03-06T14:51:22;16.80;;;12.90;;
12844;SDS011;68700;48.534;9.196;2024-03-06T14:54:44;18.30;;;13.73;;
12844;SDS011;68700;48.534;9.196;2024-03-06T14:58:07;19.03;;;15.40;;
12844;SDS011;68700;48.534;9.196;2024-03-06T15:01:29;17.97;;;14.03;;
12844;SDS011;68700;48.534;9.196;2024-03-06T15:04:52;19.87;;;14.70;;
12844;SDS011;68700;48.534;9.196;2024-03-06T15:08:14;19.37;;;15.23;;
12844;SDS011;68700;48.534;9.196;2024-03-06T15:11:36;21.27;;;15.07;;
12844;SDS011;68700;48.534;9.196;2024-03-06T15:15:01;20.17;;;15.40;;
12844;SDS011;68700;48.534;9.196;2024-03-06T15:18:26;20.93;;;15.17;;
12844;SDS011;68700;48.534;9.196;2024-03-06T15:21:51;21.70;;;15.27;;
12844;SDS011;68700;48.534;9.196;2024-03-06T15:25:13;22.93;;;16.43;;
12844;SDS011;68700;48.534;9.196;2024-03-06T15:28:35;20.90;;;16.87;;
12844;SDS011;68700;48.534;9.196;2024-03-06T15:31:57;26.50;;;18.40;;
12844;SDS011;68700;48.534;9.196;2024-03-06T15:35:19;22.50;;;17.03;;
12844;SDS011;68700;48.534;9.196;2024-03-06T15:38:44;21.80;;;16.87;;
12844;SDS011;68700;48.534;9.196;2024-03-06T15:42:06;22.23;;;16.53;;
12844;SDS011;68700;48.534;9.196;2024-03-06T15:45:28;23.83;;;17.77;;
12844;SDS011;68700;48.534;9.196;2024-03-06T15:48:50;23.30;;;17.10;;
12844;SDS011;68700;48.534;9.196;2024-03-06T15:52:12;20.43;;;16.03;;
12844;SDS011;68700;48.534;9.196;2024-03-06T15:55:35;22.20;;;15.60;;
12844;SDS011;68700;48.534;9.196;2024-03-06T15:58:57;22.67;;;15.87;;
12844;SDS011;68700;48.534;9.196;2024-03-06T16:02:19;21.57;;;17.37;;
12844;SDS011;68700;48.534;9.196;2024-03-06T16:05:41;23.03;;;16.40;;
12844;SDS011;68700;48.534;9.196;2024-03-06T16:09:03;22.17;;;16.37;;
12844;SDS011;68700;48.534;9.196;2024-03-06T16:12:26;22.33;;;16.23;;
12844;SDS011;68700;48.534;9.196;2024-03-06T16:15:48;22.67;;;16.93;;
12844;SDS011;68700;48.534;9.196;2024-03-06T16:19:10;22.50;;;16.60;;
12844;SDS011;68700;48.534;9.196;2024-03-06T16:22:32;20.00;;;15.47;;
12844;SDS011;68700;48.534;9.196;2024-03-06T16:25:54;22.53;;;16.70;;
12844;SDS011;68700;48.534;9.196;2024-03-06T16:29:17;20.00;;;15.93;;
12844;SDS011;68700;48.534;9.196;2024-03-06T16:32:39;19.40;;;15.30;;
12844;SDS011;68700;48.534;9.196;2024-03-06T16:36:01;19.80;;;16.30;;
12844;SDS011;68700;48.534;9.196;2024-03-06T16:39:23;22.03;;;17.30;;
12844;SDS011;68700;48.534;9.196;2024-03-06T16:42:45;25.70;;;19.57;;
12844;SDS011;68700;48.534;9.196;2024-03-06T16:46:08;20.27;;;16.13;;
12844;SDS011;68700;48.534;9.196;2024-03-06T16:49:30;19.10;;;15.37;;
12844;SDS011;68700;48.534;9.196;2024-03-06T16:52:51;21.00;;;16.07;;
12844;SDS011;68700;48.534;9.196;2024-03-06T16:56:16;20.97;;;15.37;;
12844;SDS011;68700;48.534;9.196;2024-03-06T16:59:38;22.83;;;16.80;;
12844;SDS011;68700;48.534;9.196;2024-03-06T17:03:02;19.83;;;15.13;;
12844;SDS011;68700;48.534;9.196;2024-03-06T17:06:24;19.03;;;14.03;;
12844;SDS011;68700;48.534;9.196;2024-03-06T17:09:46;19.50;;;14.77;;
12844;SDS011;68700;48.534;9.196;2024-03-06T17:13:08;20.63;;;15.67;;
12844;SDS011;68700;48.534;9.196;2024-03-06T17:16:30;21.40;;;16.40;;
12844;SDS011;68700;48.534;9.196;2024-03-06T17:19:53;22.73;;;17.67;;
12844;SDS011;68700;48.534;9.196;2024-03-06T17:23:15;24.20;;;18.43;;
12844;SDS011;68700;48.534;9.196;2024-03-06T17:26:37;27.37;;;19.73;;
12844;SDS011;68700;48.534;9.196;2024-03-06T17:30:00;26.47;;;20.00;;
12844;SDS011;68700;48.534;9.196;2024-03-06T17:33:22;31.30;;;20.37;;
12844;SDS011;68700;48.534;9.196;2024-03-06T17:36:45;28.03;;;20.37;;
12844;SDS011;68700;48.534;9.196;2024-03-06T17:40:07;28.20;;;19.40;;
12844;SDS011;68700;48.534;9.196;2024-03-06T17:43:30;28.23;;;19.30;;
12844;SDS011;68700;48.534;9.196;2024-03-06T17:46:52;33.60;;;22.37;;
12844;SDS011;68700;48.534;9.196;2024-03-06T17:50:14;33.37;;;23.27;;
12844;SDS011;68700;48.534;9.196;2024-03-06T17:53:37;34.63;;;22.23;;
12844;SDS011;68700;48.534;9.196;2024-03-06T17:56:59;34.87;;;21.87;;
12844;SDS011;68700;48.534;9.196;2024-03-06T18:00:21;32.40;;;23.77;;
12844;SDS011;68700;48.534;9.196;2024-03-06T18:03:43;37.93;;;26.23;;
12844;SDS011;68700;48.534;9.196;2024-03-06T18:07:06;34.53;;;23.40;;
12844;SDS011;68700;48.534;9.196;2024-03-06T18:10:29;34.40;;;23.00;;
12844;SDS011;68700;48.534;9.196;2024-03-06T18:13:51;40.77;;;24.60;;
12844;SDS011;68700;48.534;9.196;2024-03-06T18:17:12;33.33;;;22.27;;
12844;SDS011;68700;48.534;9.196;2024-03-06T18:20:34;36.30;;;23.77;;
12844;SDS011;68700;48.534;9.196;2024-03-06T18:23:57;37.47;;;24.07;;
12844;SDS011;68700;48.534;9.196;2024-03-06T18:27:20;37.67;;;24.27;;
12844;SDS011;68700;48.534;9.196;2024-03-06T18:30:44;42.47;;;26.17;;
12844;SDS011;68700;48.534;9.196;2024-03-06T18:34:05;38.30;;;25.07;;
12844;SDS011;68700;48.534;9.196;2024-03-06T18:37:27;34.43;;;24.40;;
12844;SDS011;68700;48.534;9.196;2024-03-06T18:40:49;44.47;;;27.10;;
12844;SDS011;68700;48.534;9.196;2024-03-06T18:44:12;39.13;;;24.50;;
12844;SDS011;68700;48.534;9.196;2024-03-06T18:47:34;37.20;;;22.30;;
12844;SDS011;68700;48.534;9.196;2024-03-06T18:50:57;34.20;;;22.97;;
12844;SDS011;68700;48.534;9.196;2024-03-06T18:54:18;35.07;;;24.30;;
12844;SDS011;68700;48.534;9.196;2024-03-06T18:57:40;38.63;;;24.40;;
12844;SDS011;68700;48.534;9.196;2024-03-06T19:01:04;41.57;;;25.53;;
12844;SDS011;68700;48.534;9.196;2024-03-06T19:04:27;40.53;;;25.33;;
12844;SDS011;68700;48.534;9.196;2024-03-06T19:07:48;37.33;;;23.93;;
12844;SDS011;68700;48.534;9.196;2024-03-06T19:11:11;37.90;;;24.90;;
12844;SDS011;68700;48.534;9.196;2024-03-06T19:14:33;38.47;;;24.63;;
12844;SDS011;68700;48.534;9.196;2024-03-06T19:17:56;33.40;;;23.60;;
12844;SDS011;68700;48.534;9.196;2024-03-06T19:21:18;44.13;;;25.70;;
12844;SDS011;68700;48.534;9.196;2024-03-06T19:24:40;46.23;;;32.07;;
12844;SDS011;68700;48.534;9.196;2024-03-06T19:28:03;42.00;;;27.17;;
12844;SDS011;68700;48.534;9.196;2024-03-06T19:31:26;34.03;;;21.33;;
12844;SDS011;68700;48.534;9.196;2024-03-06T19:34:49;30.63;;;21.40;;
12844;SDS011;68700;48.534;9.196;2024-03-06T19:38:11;35.77;;;24.47;;
12844;SDS011;68700;48.534;9.196;2024-03-06T19:41:35;38.70;;;25.67;;
12844;SDS011;68700;48.534;9.196;2024-03-06T19:44:57;32.23;;;21.40;;
12844;SDS011;68700;48.534;9.196;2024-03-06T19:48:19;25.83;;;18.53;;
12844;SDS011;68700;48.534;9.196;2024-03-06T19:51:43;21.50;;;14.77;;
12844;SDS011;68700;48.534;9.196;2024-03-06T19:55:05;15.47;;;9.80;;
12844;SDS011;68700;48.534;9.196;2024-03-06T19:58:28;10.60;;;7.63;;
12844;SDS011;68700;48.534;9.196;2024-03-06T20:01:50;10.23;;;7.83;;
12844;SDS011;68700;48.534;9.196;2024-03-06T20:05:12;13.33;;;9.30;;
12844;SDS011;68700;48.534;9.196;2024-03-06T20:08:35;11.40;;;8.37;;